• Join FlightAware (Why Join?)
  • Login
  • US Flag 
02:06PM EST


 

Airport Tracker/Info


-or-


 

Live Flight TrackerFlight Track Log ✈ AAL1071 ✈ 19-Jun-2013 ✈ KPHL - KMIA

Flight Track Log - Related Links

Times and Time Zones

All times are in EDT time to prevent confusion due to time zone crossing. See the AAL1071 flight status page for this flight to view local times or setup timezone preferences in your user account.

Time Position Orientation Groundspeed Altitude Reporting Facility
EDT Latitude Longitude Course Direction KTS MPH feet Rate Location/Type
08:13AM 39.8762 -75.2126 85° East 197 227 1,000  Level FlightAware ADS-B
08:14AM 39.8759 -75.2055 93° East 199 229 1,400 3,960 Climbing FlightAware ADS-B
08:14AM 39.8751 -75.1998 100° East 201 231 1,600 3,000 Climbing FlightAware ADS-B
08:14AM 39.8741 -75.1959 108° East 203 234 1,800 3,720 Climbing FlightAware ADS-B
08:14AM 39.8724 -75.1911 115° Southeast 205 236 2,100 3,600 Climbing FlightAware ADS-B
08:14AM 39.8691 -75.1841 122° Southeast 211 243 2,400 2,220 Climbing FlightAware ADS-B
08:14AM 39.8594 -75.1637 122° Southeast 235 270 3,000 2,100 Climbing FlightAware ADS-B
08:14AM 39.8535 -75.1509 121° Southeast 245 282 3,400 3,060 Climbing FlightAware ADS-B
08:15AM 39.8437 -75.1285 120° Southeast 252 290 4,400 3,240 Climbing FlightAware ADS-B
08:15AM 39.8403 -75.1224 126° Southeast 255 293 4,600 2,700 Climbing FlightAware ADS-B
08:15AM 39.8352 -75.1161 137° Southeast 261 300 4,900 2,640 Climbing FlightAware ADS-B
08:15AM 39.8322 -75.1134 145° Southeast 263 303 5,000 3,000 Climbing FlightAware ADS-B
08:15AM 39.8286 -75.1108 151° Southeast 264 304 5,200 3,600 Climbing FlightAware ADS-B
08:15AM 39.8216 -75.1076 161° South 265 305 5,600 3,780 Climbing FlightAware ADS-B
08:15AM 39.8163 -75.1063 169° South 264 304 5,900 4,200 Climbing FlightAware ADS-B
08:15AM 39.8094 -75.1059 177° South 262 302 6,300 3,660 Climbing FlightAware ADS-B
08:15AM 39.7946 -75.1103 193° South 258 297 7,000 3,660 Climbing FlightAware ADS-B
08:15AM 39.7883 -75.1146 208° Southwest 256 295 7,400 3,600 Climbing FlightAware ADS-B
08:16AM 39.7639 -75.1332 210° Southwest 256 295 8,800 3,420 Climbing FlightAware ADS-B
08:16AM 39.7473 -75.1453 209° Southwest 254 292 9,700 2,160 Climbing FlightAware ADS-B
08:17AM 39.7139 -75.1705 210° Southwest 293 337 10,500 1,620 Climbing FlightAware ADS-B
08:17AM 39.6757 -75.1986 210° Southwest 309 356 11,400 1,320 Climbing FlightAware ADS-B
08:18AM 39.6366 -75.2277 210° Southwest 320 368 11,900 480 Climbing FlightAware ADS-B
08:18AM 39.5979 -75.2568 210° Southwest 323 372 11,900 660 Level FlightAware ADS-B
08:19AM 39.5549 -75.2889 210° Southwest 327 376 12,600 2,100 Climbing FlightAware ADS-B
08:19AM 39.5191 -75.3148 209° Southwest 331 381 14,000 3,180 Climbing FlightAware ADS-B
08:19AM 39.4984 -75.3253 201° Southwest 336 387 14,800 2,880 Climbing FlightAware ADS-B
08:20AM 39.4756 -75.3323 193° South 345 397 15,400 1,860 Climbing FlightAware ADS-B
08:20AM 39.4277 -75.3410 188° South 346 398 16,200 1,440 Climbing FlightAware ADS-B
08:21AM 39.3746 -75.3505 188° South 362 417 16,900 600 Climbing FlightAware ADS-B
08:21AM 39.3197 -75.3603 188° South 361 415 16,900 60 Level FlightAware ADS-B
08:22AM 39.2676 -75.3696 188° South 360 414 17,000 1,200 Climbing FlightAware ADS-B
08:22AM 39.2176 -75.3785 188° South 359 413 18,200 2,640 Climbing FlightAware ADS-B
08:23AM 39.1640 -75.3873 187° South 359 413 19,800 2,340 Climbing FlightAware ADS-B
08:23AM 39.1129 -75.3949 187° South 372 428 20,700 1,980 Climbing FlightAware ADS-B
08:24AM 39.0566 -75.4034 187° South 382 440 21,900 2,460 Climbing FlightAware ADS-B
08:24AM 39.0023 -75.4116 187° South 382 440 23,300 2,520 Climbing FlightAware ADS-B
08:25AM 38.9471 -75.4200 187° South 379 436 24,600 2,280 Climbing FlightAware ADS-B
08:25AM 38.8930 -75.4283 187° South 381 438 25,700 2,040 Climbing FlightAware ADS-B
08:26AM 38.8375 -75.4367 187° South 384 442 26,800 2,220 Climbing FlightAware ADS-B
08:27AM 38.7778 -75.4456 187° South 375 432 28,200 1,980 Climbing FlightAware ADS-B
08:27AM 38.7180 -75.4547 187° South 375 432 29,100 1,140 Climbing FlightAware ADS-B
08:28AM 38.6592 -75.4638 187° South 394 453 29,500 1,020 Climbing FlightAware ADS-B
08:29AM 38.5649 -75.4777 187° South 398 458 30,600 1,380 Climbing FlightAware ADS-B
08:29AM 38.5075 -75.4863 187° South 404 465 31,400 1,860 Climbing FlightAware ADS-B
08:30AM 38.4509 -75.4947 187° South 403 464 32,500 1,680 Climbing FlightAware ADS-B
08:30AM 38.3961 -75.5028 187° South 398 458 33,100 960 Climbing FlightAware ADS-B
08:31AM 38.3350 -75.5190 192° South 392 451 33,600 600 Climbing FlightAware
08:31AM 38.2610 -75.5630 205° Southwest 381 438 34,000 240 Climbing FlightAware
08:32AM 38.1920 -75.6060 206° Southwest 381 438 34,000  Level FlightAware
08:33AM 38.1230 -75.6490 206° Southwest 382 440 34,000  Level FlightAware
08:33AM 38.0858 -75.6725 206° Southwest 390 449 34,000 180 Level FlightAware ADS-B
08:34AM 38.0340 -75.7050 206° Southwest 395 455 34,200 540 Climbing FlightAware
08:34AM 37.9670 -75.7460 206° Southwest 401 461 34,700 900 Climbing FlightAware
08:35AM 37.9000 -75.7880 206° Southwest 394 453 35,500 780 Climbing FlightAware
08:36AM 37.8010 -75.8410 203° Southwest 399 459 36,000 300 Climbing FlightAware
08:37AM 37.7376 -75.8744 203° Southwest 399 459 36,000  Level FlightAware ADS-B
08:37AM 37.6739 -75.9075 202° Southwest 398 458 36,000  Level FlightAware ADS-B
08:38AM 37.6160 -75.9370 202° Southwest 398 458 36,000  Level FlightAware
08:39AM 37.5340 -75.9800 203° Southwest 397 457 36,000  Level FlightAware
08:40AM 37.4140 -76.0420 202° Southwest 396 456 36,000  Level FlightAware
08:40AM 37.3570 -76.0713 202° Southwest 397 457 36,000  Level FlightAware ADS-B
08:41AM 37.3042 -76.0986 202° Southwest 397 457 36,000  Level FlightAware ADS-B
08:41AM 37.2492 -76.1268 202° Southwest 398 458 36,000  Level FlightAware ADS-B
08:42AM 37.1978 -76.1532 202° Southwest 400 460 36,000  Level FlightAware ADS-B
08:42AM 37.1417 -76.1819 202° Southwest 401 461 36,000  Level FlightAware ADS-B
08:43AM 37.0779 -76.2146 202° Southwest 403 464 36,000  Level FlightAware ADS-B
08:44AM 36.9925 -76.2581 202° Southwest 405 466 36,000  Level FlightAware ADS-B
08:45AM 36.8790 -76.3160 202° Southwest 408 470 36,000  Level FlightAware
08:47AM 36.8570 -76.3270 202° Southwest 409 471 36,000  Level FlightAware
08:47AM 36.6370 -76.4390 202° Southwest 411 473 36,000  Level FlightAware
08:48AM 36.5830 -76.4660 202° Southwest 410 472 36,000  Level FlightAware
08:49AM 36.4890 -76.5130 202° Southwest 410 472 36,000  Level FlightAware
08:49AM 36.4100 -76.5530 202° Southwest 410 472 36,000  Level FlightAware
08:50AM 36.3560 -76.5790 201° Southwest 410 472 36,000  Level FlightAware
08:51AM 36.2920 -76.6120 203° Southwest 410 472 36,000  Level FlightAware
08:51AM 36.2000 -76.6570 202° Southwest 409 471 36,000  Level FlightAware
08:52AM 36.1290 -76.6930 202° Southwest 410 472 36,000  Level FlightAware
08:53AM 36.0620 -76.7260 202° Southwest 409 471 36,000  Level FlightAware
08:54AM 35.9790 -76.7680 202° Southwest 411 473 36,000  Level FlightAware
08:54AM 35.9270 -76.7940 202° Southwest 410 472 36,000  Level FlightAware
08:55AM 35.8490 -76.8320 202° Southwest 410 472 36,000  Level FlightAware
08:56AM 35.7940 -76.8600 202° Southwest 410 472 36,000  Level FlightAware
08:56AM 35.7400 -76.8870 202° Southwest 410 472 36,000  Level FlightAware
08:57AM 35.6680 -76.9220 202° Southwest 410 472 36,000  Level FlightAware
08:58AM 35.6150 -76.9490 202° Southwest 410 472 36,000  Level FlightAware
08:59AM 35.5410 -76.9860 202° Southwest 410 472 36,000  Level FlightAware
08:59AM 35.4730 -77.0200 202° Southwest 410 472 36,000  Level FlightAware
09:00AM 35.4220 -77.0450 202° Southwest 410 472 36,000  Level FlightAware
09:01AM 35.3480 -77.0810 202° Southwest 410 472 36,000  Level FlightAware
09:01AM 35.2960 -77.1070 202° Southwest 410 472 36,000  Level FlightAware
09:02AM 35.2230 -77.1430 202° Southwest 410 472 36,000  Level FlightAware
09:03AM 35.1650 -77.1720 202° Southwest 410 472 36,000  Level FlightAware
09:04AM 34.8253 -77.1406 202° Southwest 435 501 36,000  Level Washington Center
09:05AM 34.7042 -77.1533 185° South 435 501 36,000  Level Washington Center
09:06AM 34.5828 -77.1686 186° South 440 506 36,000  Level Washington Center
09:12AM 33.8720 -77.2910 186° South 434 499 36,000  Level FlightAware
09:13AM 33.7040 -77.3250 190° South 434 499 36,000  Level FlightAware
09:14AM 33.6470 -77.3340 187° South 436 502 36,000  Level FlightAware
09:15AM 33.5620 -77.3470 187° South 436 502 36,000  Level FlightAware
09:15AM 33.4890 -77.3570 187° South 436 502 36,000  Level FlightAware
09:16AM 33.4050 -77.3700 187° South 436 502 36,000  Level FlightAware
09:17AM 33.3050 -77.3840 187° South 436 502 36,000  Level FlightAware
09:18AM 33.2440 -77.3930 187° South 436 502 36,000  Level FlightAware
09:18AM 33.2030 -77.3990 187° South 436 502 36,000  Level FlightAware
09:19AM 33.1210 -77.4110 187° South 436 502 36,000  Level FlightAware
09:19AM 33.0580 -77.4210 188° South 436 502 36,000  Level FlightAware
09:20AM 32.9850 -77.4310 187° South 436 502 36,000  Level FlightAware
09:21AM 32.9070 -77.4430 187° South 436 502 36,000  Level FlightAware
09:22AM 32.8220 -77.4550 187° South 436 502 36,000  Level FlightAware
09:23AM 32.7330 -77.4680 187° South 436 502 36,000  Level FlightAware
09:23AM 32.6700 -77.4770 187° South 436 502 36,000  Level FlightAware
09:24AM 32.4408 -77.7189 187° South 454 522 36,000  Level Jacksonville Center
09:25AM 32.3306 -77.7792 205° Southwest 454 522 36,000 -60 Level Jacksonville Center
09:26AM 32.2181 -77.8419 205° Southwest 454 522 35,900  Descending Jacksonville Center
09:27AM 32.1097 -77.8944 202° Southwest 449 517 36,000  Climbing Jacksonville Center
09:28AM 31.9997 -77.9642 208° Southwest 449 517 36,000 -60 Level Jacksonville Center
09:29AM 31.8869 -78.0167 202° Southwest 444 511 35,900  Descending Jacksonville Center
09:30AM 31.7764 -78.0761 205° Southwest 444 511 36,000  Climbing Jacksonville Center
09:31AM 31.6664 -78.1428 207° Southwest 444 511 36,000  Level Jacksonville Center
09:32AM 31.5556 -78.1972 203° Southwest 439 505 36,000  Level Jacksonville Center
09:33AM 31.4453 -78.2636 207° Southwest 439 505 36,000  Level Jacksonville Center
09:34AM 31.3264 -78.3256 204° Southwest 430 495 36,000  Level Jacksonville Center
09:35AM 31.2100 -78.3919 206° Southwest 453 521 36,000 -60 Level Jacksonville Center
09:36AM 31.1011 -78.4481 204° Southwest 453 521 35,900  Descending Jacksonville Center
09:37AM 30.9886 -78.5092 205° Southwest 448 516 36,000  Climbing Jacksonville Center
09:38AM 30.8881 -78.5622 204° Southwest 448 516 36,000  Level Jacksonville Center
09:39AM 30.7733 -78.6231 204° Southwest 447 514 36,000  Level Jacksonville Center
09:40AM 30.6625 -78.6811 204° Southwest 447 514 36,000  Level Jacksonville Center
09:41AM 30.5444 -78.7153 194° South 447 514 36,000  Level Jacksonville Center
09:42AM 30.4514 -78.7297 188° South 443 510 36,000  Level Miami Center
09:43AM 30.3325 -78.7492 188° South 422 486 36,000  Level Miami Center
09:44AM 30.2114 -78.7689 188° South 433 498 36,000  Level Miami Center
09:45AM 30.0900 -78.7906 189° South 440 506 36,000  Level Miami Center
09:46AM 29.9833 -78.8150 191° South 440 506 36,000  Level Miami Center
09:47AM 29.8581 -78.8294 186° South 446 513 36,000  Level Miami Center
09:48AM 29.7347 -78.8536 190° South 453 521 36,000  Level Miami Center
09:49AM 29.6156 -78.8706 187° South 446 513 36,000  Level Miami Center
09:50AM 29.4883 -78.8847 186° South 446 513 36,000  Level Miami Center
09:55AM 28.7710 -78.9780 186° South 453 521 36,000  Level FlightAware
09:56AM 28.6880 -78.9890 187° South 453 521 36,000  Level FlightAware
09:57AM 28.5990 -79.0010 187° South 455 524 36,000 -300 Level FlightAware
09:58AM 28.4990 -79.0140 187° South 456 525 35,600 -540 Descending FlightAware
09:58AM 28.4080 -79.0260 187° South 453 521 35,200 -1,140 Descending FlightAware
09:59AM 28.2750 -79.0560 191° South 447 514 33,700 -1,320 Descending FlightAware
10:00AM 28.1580 -79.0920 195° South 458 527 32,700 -1,080 Descending FlightAware
10:01AM 28.0720 -79.1180 195° South 450 518 31,900 -660 Descending FlightAware
10:02AM 28.0080 -79.1380 195° South 450 518 31,800 -1,080 Descending FlightAware
10:02AM 27.9090 -79.1680 195° South 452 520 30,500 -1,560 Descending FlightAware
10:03AM 27.8170 -79.1960 195° South 453 521 29,700 -1,080 Descending FlightAware
10:04AM 27.7320 -79.2220 195° South 463 533 29,000 -1,080 Descending FlightAware
10:04AM 27.6690 -79.2410 195° South 452 520 28,500 -1,080 Descending FlightAware
10:05AM 27.5780 -79.2690 195° South 461 531 27,700 -1,140 Descending FlightAware
10:06AM 27.4970 -79.2940 195° South 464 534 27,000 -1,080 Descending FlightAware
10:06AM 27.4020 -79.3240 196° South 463 533 26,200 -1,080 Descending FlightAware
10:07AM 27.3250 -79.3550 200° South 465 535 25,500 -1,200 Descending FlightAware
10:08AM 27.2450 -79.3890 201° Southwest 459 528 24,700 -1,140 Descending FlightAware
10:08AM 27.1660 -79.4250 202° Southwest 432 497 24,000 -540 Descending FlightAware
10:09AM 27.0920 -79.4580 202° Southwest 434 499 24,000 -780 Level FlightAware
10:10AM 26.9760 -79.5090 201° Southwest 433 498 22,800 -1,320 Descending FlightAware
10:10AM 26.9360 -79.5260 201° Southwest 424 488 22,200 -1,080 Descending FlightAware
10:12AM 26.8240 -79.5750 201° Southwest 400 460 20,500 -1,680 Descending FlightAware
10:13AM 26.6920 -79.6330 201° Southwest 372 428 18,300 -2,580 Descending FlightAware
10:14AM 26.6270 -79.6620 202° Southwest 367 422 17,100 -1,620 Descending FlightAware
10:14AM 26.5570 -79.6920 201° Southwest 361 415 16,000 -960 Descending FlightAware
10:15AM 26.5020 -79.7160 201° Southwest 351 404 15,900 -120 Descending FlightAware
10:16AM 26.4390 -79.7800 222° Southwest 354 407 15,900 -300 Level FlightAware
10:16AM 26.4010 -79.8460 237° Southwest 356 410 15,500 -720 Descending FlightAware
10:17AM 26.3580 -79.9040 230° Southwest 352 405 14,900 -1,380 Descending FlightAware
10:18AM 26.3110 -79.9530 223° Southwest 350 403 13,700 -1,800 Descending FlightAware
10:19AM 26.2630 -80.0020 222° Southwest 343 395 12,500 -1,920 Descending FlightAware
10:19AM 26.1970 -80.0290 200° South 338 389 11,000 -1,680 Descending FlightAware
10:20AM 26.1340 -80.0470 194° South 321 369 10,100 -900 Descending FlightAware
10:20AM 26.0970 -80.0580 195° South 299 344 10,000 -720 Descending FlightAware
10:21AM 26.0600 -80.0680 194° South 287 330 9,500 -1,020 Descending FlightAware
10:21AM 26.0250 -80.0780 194° South 279 321 9,100 -660 Descending FlightAware
10:22AM 25.9890 -80.0880 194° South 260 299 8,900 -480 Descending FlightAware
10:22AM 25.9620 -80.1030 207° Southwest 247 284 8,700 -600 Descending FlightAware
10:23AM 25.9500 -80.1180 228° Southwest 242 278 8,500 -1,020 Descending FlightAware
10:23AM 25.9350 -80.1450 238° Southwest 239 275 8,000 -660 Descending FlightAware
10:23AM 25.9180 -80.1770 239° Southwest 240 276 7,900 -120 Descending FlightAware
10:24AM 25.9080 -80.2050 248° West 240 276 7,900  Level FlightAware
10:24AM 25.9020 -80.2240 251° West 241 277 7,900 -540 Level FlightAware
10:25AM 25.8960 -80.2590 259° West 246 283 7,500 -900 Descending FlightAware
10:25AM 25.9010 -80.2900 280° West 245 282 7,100 -1,020 Descending FlightAware
10:26AM 25.9140 -80.3220 294° West 242 278 6,600 -1,200 Descending FlightAware
10:26AM 25.9270 -80.3530 295° West 237 273 6,000 -1,200 Descending FlightAware
10:26AM 25.9380 -80.3800 294° West 230 265 5,600 -1,380 Descending FlightAware
10:27AM 25.9410 -80.3980 281° West 233 268 5,100 -1,620 Descending FlightAware
10:27AM 25.9390 -80.4340 266° West 231 266 4,400 -1,440 Descending FlightAware
10:28AM 25.9310 -80.4670 255° West 216 249 3,700 -1,500 Descending FlightAware
10:28AM 25.9230 -80.4740 218° Southwest 213 245 3,400 -1,800 Descending FlightAware
10:28AM 25.9130 -80.4770 195° South 212 244 3,100 -900 Descending FlightAware
10:28AM 25.8910 -80.4650 154° Southeast 198 228 2,900 -420 Descending FlightAware
10:29AM 25.8780 -80.4500 134° Southeast 188 216 2,800 -660 Descending FlightAware
10:29AM 25.8660 -80.4310 125° Southeast 180 207 2,400 -1,080 Descending FlightAware
10:30AM 25.8570 -80.4130 119° Southeast 167 192 2,000 -900 Descending FlightAware
10:30AM 25.8470 -80.3960 123° Southeast 153 176 1,700 -720 Descending FlightAware
10:30AM 25.8380 -80.3770 118° Southeast 146 168 1,400 -840 Descending FlightAware
10:31AM 25.8320 -80.3670 124° Southeast 143 165 1,100 -840 Descending FlightAware
10:31AM 25.8230 -80.3480 118° Southeast 141 162 800 -780 Descending FlightAware
10:32AM 25.8130 -80.3300 122° Southeast 142 163 400 -780 Descending FlightAware
10:32AM 25.8050 -80.3130 118° Southeast 143 165 100 -720 Descending FlightAware
10:33AM 25.7960 -80.2960 120° Southeast 140 161 -240 Descending FlightAware
10:33AM 25.7930 -80.2900 119° Southeast 84 97  Level FlightAware